CSCL Star — VRHM7 — position and weather

sailwx.info

Track history (hours):
 
Tides and Currents Weather Stations Pressure Air Temp Water Temp Dewpoint Dewpoint Depression Visibility Wind Speed Wind Dir Waves Ship Positions

CSCL Star

Last reported at 2018-Jun-16 04:26 UTC. Time now 2018-Jun-20 11:06 UTC.
Position N 31°12' E 032°20'.

Length 366 m; draft 14.4 m.

Type: Ship (hazmat cat A). MMSI: 477963800.

Date/timePositionNaut miles runAvg speedWind from/ knotsBaromVisibWave heightAir tempDewpointWater temp
2018-Jun-16 04:26N 31°12' E 032°20'3 8.0
2018-Jun-16 04:01N 31°16' E 032°21'611.8
2018-Jun-16 03:29N 31°21' E 032°23'5 9.7
2018-Jun-16 03:00N 31°26' E 032°23'3 6.4
2018-Jun-16 02:30N 31°27' E 032°20'1 1.9
2018-Jun-16 02:00N 31°27' E 032°19'0 0.1
2018-Jun-16 01:00N 31°27' E 032°19'0 0.0
2018-Jun-16 00:24N 31°27' E 032°19'0 0.0
2018-Jun-15 23:54N 31°27' E 032°19'0 0.0
2018-Jun-15 23:00N 31°27' E 032°19'0 0.0
2018-Jun-15 22:30N 31°27' E 032°19'0 0.0
2018-Jun-15 22:00N 31°27' E 032°19'0 0.0
2018-Jun-15 21:30N 31°27' E 032°19'0 0.0
2018-Jun-15 21:00N 31°27' E 032°19'0 0.0
2018-Jun-15 20:30N 31°27' E 032°19'0 0.0
2018-Jun-15 20:00N 31°27' E 032°19'0 0.1
2018-Jun-15 19:30N 31°27' E 032°19'0 0.1
2018-Jun-15 19:01N 31°27' E 032°19'2 4.4
2018-Jun-15 18:29N 31°28' E 032°16'613.6
2018-Jun-15 18:01N 31°33' E 032°11'714.1
2018-Jun-15 17:31N 31°38' E 032°05'713.9
2018-Jun-15 17:00N 31°43' E 031°59'714.1
2018-Jun-15 16:31N 31°47' E 031°53'714.0
2018-Jun-15 16:01N 31°51' E 031°46'713.9
2018-Jun-15 15:31N 31°55' E 031°39'713.9
2018-Jun-15 15:01N 31°60' E 031°33'813.9
2018-Jun-15 14:25N 32°05' E 031°25'614.0
2018-Jun-15 14:00N 32°08' E 031°20'814.1
2018-Jun-15 13:28N 32°13' E 031°13'1614.2
2018-Jun-15 12:22N 32°23' E 030°59'514.2
2018-Jun-15 12:01N 32°26' E 030°54'714.3
2018-Jun-15 11:31N 32°31' E 030°48'714.3
2018-Jun-15 11:00N 32°35' E 030°41'814.1
2018-Jun-15 10:25N 32°41' E 030°34'513.3
2018-Jun-15 10:00N 32°44' E 030°29'713.1
2018-Jun-15 09:30N 32°48' E 030°23'713.2
2018-Jun-15 09:00N 32°52' E 030°16'713.2
2018-Jun-15 08:30N 32°56' E 030°10'713.3
2018-Jun-15 08:00N 33°00' E 030°04'713.3
2018-Jun-15 07:29N 33°05' E 029°58'613.3
2018-Jun-15 07:00N 33°09' E 029°52'713.2
2018-Jun-15 06:30N 33°13' E 029°46'6615.6
2018-Jun-15 02:15N 33°55' E 028°44'417.4
2018-Jun-15 02:00N 33°57' E 028°40'11717.3
2018-Jun-14 19:12N 35°11' E 026°49'417.0
2018-Jun-14 19:00N 35°13' E 026°46'9317.3
2018-Jun-14 13:36N 36°04' E 025°09'217.3
2018-Jun-14 13:30N 36°05' E 025°07'917.3
2018-Jun-14 13:00N 36°10' E 024°58'917.4
2018-Jun-14 12:30N 36°15' E 024°50'917.4
2018-Jun-14 12:00N 36°19' E 024°41'917.1
2018-Jun-14 11:30N 36°24' E 024°32'917.1
2018-Jun-14 11:00N 36°29' E 024°23'816.7
2018-Jun-14 10:30N 36°34' E 024°15'816.7
2018-Jun-14 10:00N 36°41' E 024°09'817.0
2018-Jun-14 09:30N 36°48' E 024°03'917.0
2018-Jun-14 09:00N 36°56' E 023°58'816.9
2018-Jun-14 08:30N 37°04' E 023°55'817.0
2018-Jun-14 08:00N 37°12' E 023°52'1116.9
2018-Jun-14 07:21N 37°23' E 023°48'616.9
2018-Jun-14 07:00N 37°28' E 023°46'1117.0
2018-Jun-14 06:21N 37°39' E 023°42'617.3
2018-Jun-14 06:00N 37°44' E 023°39'815.6
2018-Jun-14 05:30N 37°52' E 023°37'5 9.8
2018-Jun-14 05:00N 37°57' E 023°36'1 1.7
2018-Jun-14 04:28N 37°57' E 023°35'0 0.0
2018-Jun-14 03:58N 37°57' E 023°35'0 0.0
2018-Jun-14 03:28N 37°57' E 023°35'0 0.0
2018-Jun-14 02:55N 37°57' E 023°35'0 0.0
2018-Jun-14 02:28N 37°57' E 023°35'0 0.0
2018-Jun-14 01:55N 37°57' E 023°35'0 0.0
2018-Jun-14 01:28N 37°57' E 023°35'0 0.0
2018-Jun-14 00:58N 37°57' E 023°35'0 0.0
2018-Jun-14 00:28N 37°57' E 023°35'0 0.0
2018-Jun-13 23:55N 37°57' E 023°35'0 0.0
2018-Jun-13 23:28N 37°57' E 023°35'0 0.0
2018-Jun-13 22:55N 37°57' E 023°35'0 0.0
2018-Jun-13 22:28N 37°57' E 023°35'0 0.0
2018-Jun-13 21:58N 37°57' E 023°35'0 0.0
2018-Jun-13 21:28N 37°57' E 023°35'0 0.0
2018-Jun-13 20:58N 37°57' E 023°35'0 0.0
2018-Jun-13 20:28N 37°57' E 023°35'0 0.0
2018-Jun-13 19:55N 37°57' E 023°35'0 0.0
2018-Jun-13 19:28N 37°57' E 023°35'0 0.0
2018-Jun-13 18:58N 37°57' E 023°35'0 0.0
2018-Jun-13 18:19N 37°57' E 023°35'0 0.0
2018-Jun-13 17:58N 37°57' E 023°35'0 0.0
2018-Jun-13 17:28N 37°57' E 023°35'0 0.0
2018-Jun-13 16:49N 37°57' E 023°35'0 0.1
2018-Jun-13 16:22N 37°57' E 023°35'0 0.1
2018-Jun-13 15:58N 37°57' E 023°35'0 0.0
2018-Jun-13 15:28N 37°57' E 023°35'0 0.0
2018-Jun-13 14:58N 37°57' E 023°35'0 0.0
2018-Jun-13 14:28N 37°57' E 023°35'0 0.0
2018-Jun-13 13:58N 37°57' E 023°35'0 0.0
2018-Jun-13 13:28N 37°57' E 023°35'0 0.0
2018-Jun-13 12:58N 37°57' E 023°35'0 0.0
2018-Jun-13 12:28N 37°57' E 023°35'0 0.0
2018-Jun-13 11:58N 37°57' E 023°35'0 0.0
2018-Jun-13 11:28N 37°57' E 023°35'0 0.0
2018-Jun-13 10:58N 37°57' E 023°35'0 0.1
2018-Jun-13 10:28N 37°57' E 023°35'0 0.0
2018-Jun-13 09:58N 37°57' E 023°35'0 0.0
2018-Jun-13 09:28N 37°57' E 023°35'0 0.0
2018-Jun-13 08:58N 37°57' E 023°35'0 0.0
2018-Jun-13 08:28N 37°57' E 023°35'0 0.0
2018-Jun-13 07:58N 37°57' E 023°35'0 0.0
2018-Jun-13 07:28N 37°57' E 023°35'0 0.0
2018-Jun-13 06:58N 37°57' E 023°35'0 0.0
2018-Jun-13 06:28N 37°57' E 023°35'0 0.0
2018-Jun-13 05:58N 37°57' E 023°35'0 0.0
2018-Jun-13 05:30N 37°57' E 023°35'1 1.3
2018-Jun-13 05:00N 37°57' E 023°35'2 4.4
2018-Jun-13 04:31N 37°55' E 023°35'1 2.6
2018-Jun-13 04:00N 37°54' E 023°36'2 4.1
2018-Jun-13 03:30N 37°52' E 023°37'2 4.4
2018-Jun-13 03:00N 37°50' E 023°39'3 5.3
2018-Jun-13 02:30N 37°48' E 023°41'4 7.6
2018-Jun-13 02:00N 37°44' E 023°43'510.5
2018-Jun-13 01:31N 37°40' E 023°45'611.6
2018-Jun-13 01:00N 37°34' E 023°46'713.1
2018-Jun-13 00:30N 37°27' E 023°46'713.1
2018-Jun-13 00:00N 37°21' E 023°46'713.0
2018-Jun-12 23:30N 37°14' E 023°44'613.0
2018-Jun-12 23:00N 37°08' E 023°41'5513.8
2018-Jun-12 19:00N 36°16' E 023°17'36914.4
2018-Jun-11 17:17N 36°10' E 015°39'415.0
2018-Jun-11 17:00N 36°11' E 015°34'815.3
2018-Jun-11 16:30N 36°11' E 015°24'815.4
2018-Jun-11 16:00N 36°11' E 015°15'815.3
2018-Jun-11 15:30N 36°11' E 015°05'815.0
2018-Jun-11 15:00N 36°11' E 014°56'815.3
2018-Jun-11 14:30N 36°11' E 014°46'815.3
2018-Jun-11 14:00N 36°11' E 014°37'815.4
2018-Jun-11 13:30N 36°10' E 014°28'814.3
2018-Jun-11 12:59N 36°13' E 014°19'815.5
2018-Jun-11 12:30N 36°15' E 014°10'715.1
2018-Jun-11 12:01N 36°17' E 014°01'815.2
2018-Jun-11 11:30N 36°20' E 013°52'815.4
2018-Jun-11 11:00N 36°23' E 013°44'815.2
2018-Jun-11 10:28N 36°27' E 013°35'714.9
2018-Jun-11 10:00N 36°30' E 013°27'715.0
2018-Jun-11 09:30N 36°32' E 013°18'815.1
2018-Jun-11 09:00N 36°35' E 013°09'815.2
2018-Jun-11 08:30N 36°38' E 013°01'815.3
2018-Jun-11 08:00N 36°41' E 012°52'815.2
2018-Jun-11 07:30N 36°44' E 012°43'815.2
2018-Jun-11 07:00N 36°46' E 012°34'915.2
2018-Jun-11 06:25N 36°50' E 012°24'615.1
2018-Jun-11 06:00N 36°52' E 012°17'57715.5
2018-Jun-09 16:51N 36°30' E 000°18'1515.9
2018-Jun-09 15:56N 36°26' W 000°00'1515.9
2018-Jun-09 15:00N 36°23' W 000°18'815.9
2018-Jun-09 14:30N 36°22' W 000°28'815.9
2018-Jun-09 13:59N 36°21' W 000°38'815.8
2018-Jun-09 13:30N 36°20' W 000°47'815.0
2018-Jun-09 12:59N 36°20' W 000°57'815.7
2018-Jun-09 12:27N 36°19' W 001°07'18815.9
2018-Jun-09 00:39N 35°60' W 004°59'217.0
2018-Jun-09 00:30N 35°60' W 005°02'917.3
2018-Jun-09 00:00N 35°59' W 005°12'917.4
2018-Jun-08 23:30N 35°58' W 005°23'2316.5
2018-Jun-08 22:07N 35°54' W 005°51'215.8
2018-Jun-08 22:00N 35°54' W 005°53'816.1
2018-Jun-08 21:30N 35°54' W 006°03'21315.1
2018-Jun-08 07:26N 37°45' W 009°50'1020.3
2018-Jun-08 06:56N 37°55' W 009°53'920.3
2018-Jun-08 06:31N 38°03' W 009°56'1120.7
2018-Jun-08 05:58N 38°14' W 009°59'1020.8
2018-Jun-08 05:30N 38°23' W 010°02'1020.9
2018-Jun-08 05:01N 38°34' W 010°04'1020.9
2018-Jun-08 04:31N 38°44' W 010°07'1020.6
2018-Jun-08 04:00N 38°54' W 010°06'1020.7
2018-Jun-08 03:30N 39°05' W 010°06'1120.9
2018-Jun-08 03:00N 39°15' W 010°07'1120.2
2018-Jun-08 02:27N 39°26' W 010°07'60620.2
2018-Jun-06 20:28N 48°59' W 005°31'1020.2
2018-Jun-06 19:59N 49°05' W 005°19'1120.4
2018-Jun-06 19:26N 49°10' W 005°04'920.4
2018-Jun-06 18:58N 49°15' W 004°52'1020.4
2018-Jun-06 18:29N 49°20' W 004°38'1920.6
2018-Jun-06 17:33N 49°30' W 004°13'420.7
2018-Jun-06 17:20N 49°32' W 004°08'720.7
2018-Jun-06 17:00N 49°36' W 003°59'1020.7
2018-Jun-06 16:30N 49°41' W 003°45'1020.8
2018-Jun-06 16:00N 49°46' W 003°31'1020.9
2018-Jun-06 15:30N 49°51' W 003°17'1020.7
2018-Jun-06 15:00N 49°56' W 003°03'1020.7
2018-Jun-06 14:30N 50°01' W 002°48'1020.9
2018-Jun-06 14:00N 50°04' W 002°32'1020.6
2018-Jun-06 13:30N 50°06' W 002°17'1020.2
2018-Jun-06 13:00N 50°09' W 002°02'1019.9
2018-Jun-06 12:30N 50°12' W 001°47'1020.1
2018-Jun-06 12:01N 50°14' W 001°32'1020.0
2018-Jun-06 11:30N 50°17' W 001°17'1020.2
2018-Jun-06 11:00N 50°19' W 001°01'1020.1
2018-Jun-06 10:30N 50°22' W 000°46'1020.2
2018-Jun-06 10:00N 50°24' W 000°31'1020.4
2018-Jun-06 09:30N 50°27' W 000°15'1020.4
2018-Jun-06 09:01N 50°30' E 000°00'1020.6
2018-Jun-06 08:31N 50°33' E 000°16'1020.8
2018-Jun-06 08:00N 50°36' E 000°31'1020.8
2018-Jun-06 07:31N 50°41' E 000°46'1020.9
2018-Jun-06 07:00N 50°47' E 000°59'1020.8
2018-Jun-06 06:31N 50°53' E 001°13'1121.0
2018-Jun-06 06:00N 50°59' E 001°26'1020.4
2018-Jun-06 05:30N 51°07' E 001°37'1020.2
2018-Jun-06 05:00N 51°15' E 001°47'1020.6
2018-Jun-06 04:31N 51°23' E 001°57'  
Track history (hours):
 
Tides and Currents Weather Stations Pressure Air Temp Water Temp Dewpoint Dewpoint Depression Visibility Wind Speed Wind Dir Waves Ship Positions

CSCL Star

Last reported at 2018-Jun-16 04:26 UTC. Time now 2018-Jun-20 11:06 UTC.
Position N 31°12' E 032°20'.

Length 366 m; draft 14.4 m.

Type: Ship (hazmat cat A). MMSI: 477963800.

Date/timePositionNaut miles runAvg speedWind from/ knotsBaromVisibWave heightAir tempDewpointWater temp
2018-Jun-16 04:26N 31°12' E 032°20'3 8.0
2018-Jun-16 04:01N 31°16' E 032°21'611.8
2018-Jun-16 03:29N 31°21' E 032°23'5 9.7
2018-Jun-16 03:00N 31°26' E 032°23'3 6.4
2018-Jun-16 02:30N 31°27' E 032°20'1 1.9
2018-Jun-16 02:00N 31°27' E 032°19'0 0.1
2018-Jun-16 01:00N 31°27' E 032°19'0 0.0
2018-Jun-16 00:24N 31°27' E 032°19'0 0.0
2018-Jun-15 23:54N 31°27' E 032°19'0 0.0
2018-Jun-15 23:00N 31°27' E 032°19'0 0.0
2018-Jun-15 22:30N 31°27' E 032°19'0 0.0
2018-Jun-15 22:00N 31°27' E 032°19'0 0.0
2018-Jun-15 21:30N 31°27' E 032°19'0 0.0
2018-Jun-15 21:00N 31°27' E 032°19'0 0.0
2018-Jun-15 20:30N 31°27' E 032°19'0 0.0
2018-Jun-15 20:00N 31°27' E 032°19'0 0.1
2018-Jun-15 19:30N 31°27' E 032°19'0 0.1
2018-Jun-15 19:01N 31°27' E 032°19'2 4.4
2018-Jun-15 18:29N 31°28' E 032°16'613.6
2018-Jun-15 18:01N 31°33' E 032°11'714.1
2018-Jun-15 17:31N 31°38' E 032°05'713.9
2018-Jun-15 17:00N 31°43' E 031°59'714.1
2018-Jun-15 16:31N 31°47' E 031°53'714.0
2018-Jun-15 16:01N 31°51' E 031°46'713.9
2018-Jun-15 15:31N 31°55' E 031°39'713.9
2018-Jun-15 15:01N 31°60' E 031°33'813.9
2018-Jun-15 14:25N 32°05' E 031°25'614.0
2018-Jun-15 14:00N 32°08' E 031°20'814.1
2018-Jun-15 13:28N 32°13' E 031°13'1614.2
2018-Jun-15 12:22N 32°23' E 030°59'514.2
2018-Jun-15 12:01N 32°26' E 030°54'714.3
2018-Jun-15 11:31N 32°31' E 030°48'714.3
2018-Jun-15 11:00N 32°35' E 030°41'814.1
2018-Jun-15 10:25N 32°41' E 030°34'513.3
2018-Jun-15 10:00N 32°44' E 030°29'713.1
2018-Jun-15 09:30N 32°48' E 030°23'713.2
2018-Jun-15 09:00N 32°52' E 030°16'713.2
2018-Jun-15 08:30N 32°56' E 030°10'713.3
2018-Jun-15 08:00N 33°00' E 030°04'713.3
2018-Jun-15 07:29N 33°05' E 029°58'613.3
2018-Jun-15 07:00N 33°09' E 029°52'713.2
2018-Jun-15 06:30N 33°13' E 029°46'6615.6
2018-Jun-15 02:15N 33°55' E 028°44'417.4
2018-Jun-15 02:00N 33°57' E 028°40'11717.3
2018-Jun-14 19:12N 35°11' E 026°49'417.0
2018-Jun-14 19:00N 35°13' E 026°46'9317.3
2018-Jun-14 13:36N 36°04' E 025°09'217.3
2018-Jun-14 13:30N 36°05' E 025°07'917.3
2018-Jun-14 13:00N 36°10' E 024°58'917.4
2018-Jun-14 12:30N 36°15' E 024°50'917.4
2018-Jun-14 12:00N 36°19' E 024°41'917.1
2018-Jun-14 11:30N 36°24' E 024°32'917.1
2018-Jun-14 11:00N 36°29' E 024°23'816.7
2018-Jun-14 10:30N 36°34' E 024°15'816.7
2018-Jun-14 10:00N 36°41' E 024°09'817.0
2018-Jun-14 09:30N 36°48' E 024°03'917.0
2018-Jun-14 09:00N 36°56' E 023°58'816.9
2018-Jun-14 08:30N 37°04' E 023°55'817.0
2018-Jun-14 08:00N 37°12' E 023°52'1116.9
2018-Jun-14 07:21N 37°23' E 023°48'616.9
2018-Jun-14 07:00N 37°28' E 023°46'1117.0
2018-Jun-14 06:21N 37°39' E 023°42'617.3
2018-Jun-14 06:00N 37°44' E 023°39'815.6
2018-Jun-14 05:30N 37°52' E 023°37'5 9.8
2018-Jun-14 05:00N 37°57' E 023°36'1 1.7
2018-Jun-14 04:28N 37°57' E 023°35'0 0.0
2018-Jun-14 03:58N 37°57' E 023°35'0 0.0
2018-Jun-14 03:28N 37°57' E 023°35'0 0.0
2018-Jun-14 02:55N 37°57' E 023°35'0 0.0
2018-Jun-14 02:28N 37°57' E 023°35'0 0.0
2018-Jun-14 01:55N 37°57' E 023°35'0 0.0
2018-Jun-14 01:28N 37°57' E 023°35'0 0.0
2018-Jun-14 00:58N 37°57' E 023°35'0 0.0
2018-Jun-14 00:28N 37°57' E 023°35'0 0.0
2018-Jun-13 23:55N 37°57' E 023°35'0 0.0
2018-Jun-13 23:28N 37°57' E 023°35'0 0.0
2018-Jun-13 22:55N 37°57' E 023°35'0 0.0
2018-Jun-13 22:28N 37°57' E 023°35'0 0.0
2018-Jun-13 21:58N 37°57' E 023°35'0 0.0
2018-Jun-13 21:28N 37°57' E 023°35'0 0.0
2018-Jun-13 20:58N 37°57' E 023°35'0 0.0
2018-Jun-13 20:28N 37°57' E 023°35'0 0.0
2018-Jun-13 19:55N 37°57' E 023°35'0 0.0
2018-Jun-13 19:28N 37°57' E 023°35'0 0.0
2018-Jun-13 18:58N 37°57' E 023°35'0 0.0
2018-Jun-13 18:19N 37°57' E 023°35'0 0.0
2018-Jun-13 17:58N 37°57' E 023°35'0 0.0
2018-Jun-13 17:28N 37°57' E 023°35'0 0.0
2018-Jun-13 16:49N 37°57' E 023°35'0 0.1
2018-Jun-13 16:22N 37°57' E 023°35'0 0.1
2018-Jun-13 15:58N 37°57' E 023°35'0 0.0
2018-Jun-13 15:28N 37°57' E 023°35'0 0.0
2018-Jun-13 14:58N 37°57' E 023°35'0 0.0
2018-Jun-13 14:28N 37°57' E 023°35'0 0.0
2018-Jun-13 13:58N 37°57' E 023°35'0 0.0
2018-Jun-13 13:28N 37°57' E 023°35'0 0.0
2018-Jun-13 12:58N 37°57' E 023°35'0 0.0
2018-Jun-13 12:28N 37°57' E 023°35'0 0.0
2018-Jun-13 11:58N 37°57' E 023°35'0 0.0
2018-Jun-13 11:28N 37°57' E 023°35'0 0.0
2018-Jun-13 10:58N 37°57' E 023°35'0 0.1
2018-Jun-13 10:28N 37°57' E 023°35'0 0.0
2018-Jun-13 09:58N 37°57' E 023°35'0 0.0
2018-Jun-13 09:28N 37°57' E 023°35'0 0.0
2018-Jun-13 08:58N 37°57' E 023°35'0 0.0
2018-Jun-13 08:28N 37°57' E 023°35'0 0.0
2018-Jun-13 07:58N 37°57' E 023°35'0 0.0
2018-Jun-13 07:28N 37°57' E 023°35'0 0.0
2018-Jun-13 06:58N 37°57' E 023°35'0 0.0
2018-Jun-13 06:28N 37°57' E 023°35'0 0.0
2018-Jun-13 05:58N 37°57' E 023°35'0 0.0
2018-Jun-13 05:30N 37°57' E 023°35'1 1.3
2018-Jun-13 05:00N 37°57' E 023°35'2 4.4
2018-Jun-13 04:31N 37°55' E 023°35'1 2.6
2018-Jun-13 04:00N 37°54' E 023°36'2 4.1
2018-Jun-13 03:30N 37°52' E 023°37'2 4.4
2018-Jun-13 03:00N 37°50' E 023°39'3 5.3
2018-Jun-13 02:30N 37°48' E 023°41'4 7.6
2018-Jun-13 02:00N 37°44' E 023°43'510.5
2018-Jun-13 01:31N 37°40' E 023°45'611.6
2018-Jun-13 01:00N 37°34' E 023°46'713.1
2018-Jun-13 00:30N 37°27' E 023°46'713.1
2018-Jun-13 00:00N 37°21' E 023°46'713.0
2018-Jun-12 23:30N 37°14' E 023°44'613.0
2018-Jun-12 23:00N 37°08' E 023°41'5513.8
2018-Jun-12 19:00N 36°16' E 023°17'36914.4
2018-Jun-11 17:17N 36°10' E 015°39'415.0
2018-Jun-11 17:00N 36°11' E 015°34'815.3
2018-Jun-11 16:30N 36°11' E 015°24'815.4
2018-Jun-11 16:00N 36°11' E 015°15'815.3
2018-Jun-11 15:30N 36°11' E 015°05'815.0
2018-Jun-11 15:00N 36°11' E 014°56'815.3
2018-Jun-11 14:30N 36°11' E 014°46'815.3
2018-Jun-11 14:00N 36°11' E 014°37'815.4
2018-Jun-11 13:30N 36°10' E 014°28'814.3
2018-Jun-11 12:59N 36°13' E 014°19'815.5
2018-Jun-11 12:30N 36°15' E 014°10'715.1
2018-Jun-11 12:01N 36°17' E 014°01'815.2
2018-Jun-11 11:30N 36°20' E 013°52'815.4
2018-Jun-11 11:00N 36°23' E 013°44'815.2
2018-Jun-11 10:28N 36°27' E 013°35'714.9
2018-Jun-11 10:00N 36°30' E 013°27'715.0
2018-Jun-11 09:30N 36°32' E 013°18'815.1
2018-Jun-11 09:00N 36°35' E 013°09'815.2
2018-Jun-11 08:30N 36°38' E 013°01'815.3
2018-Jun-11 08:00N 36°41' E 012°52'815.2
2018-Jun-11 07:30N 36°44' E 012°43'815.2
2018-Jun-11 07:00N 36°46' E 012°34'915.2
2018-Jun-11 06:25N 36°50' E 012°24'615.1
2018-Jun-11 06:00N 36°52' E 012°17'57715.5
2018-Jun-09 16:51N 36°30' E 000°18'1515.9
2018-Jun-09 15:56N 36°26' W 000°00'1515.9
2018-Jun-09 15:00N 36°23' W 000°18'815.9
2018-Jun-09 14:30N 36°22' W 000°28'815.9
2018-Jun-09 13:59N 36°21' W 000°38'815.8
2018-Jun-09 13:30N 36°20' W 000°47'815.0
2018-Jun-09 12:59N 36°20' W 000°57'815.7
2018-Jun-09 12:27N 36°19' W 001°07'18815.9
2018-Jun-09 00:39N 35°60' W 004°59'217.0
2018-Jun-09 00:30N 35°60' W 005°02'917.3
2018-Jun-09 00:00N 35°59' W 005°12'917.4
2018-Jun-08 23:30N 35°58' W 005°23'2316.5
2018-Jun-08 22:07N 35°54' W 005°51'215.8
2018-Jun-08 22:00N 35°54' W 005°53'816.1
2018-Jun-08 21:30N 35°54' W 006°03'21315.1
2018-Jun-08 07:26N 37°45' W 009°50'1020.3
2018-Jun-08 06:56N 37°55' W 009°53'920.3
2018-Jun-08 06:31N 38°03' W 009°56'1120.7
2018-Jun-08 05:58N 38°14' W 009°59'1020.8
2018-Jun-08 05:30N 38°23' W 010°02'1020.9
2018-Jun-08 05:01N 38°34' W 010°04'1020.9
2018-Jun-08 04:31N 38°44' W 010°07'1020.6
2018-Jun-08 04:00N 38°54' W 010°06'1020.7
2018-Jun-08 03:30N 39°05' W 010°06'1120.9
2018-Jun-08 03:00N 39°15' W 010°07'1120.2
2018-Jun-08 02:27N 39°26' W 010°07'60620.2
2018-Jun-06 20:28N 48°59' W 005°31'1020.2
2018-Jun-06 19:59N 49°05' W 005°19'1120.4
2018-Jun-06 19:26N 49°10' W 005°04'920.4
2018-Jun-06 18:58N 49°15' W 004°52'1020.4
2018-Jun-06 18:29N 49°20' W 004°38'1920.6
2018-Jun-06 17:33N 49°30' W 004°13'420.7
2018-Jun-06 17:20N 49°32' W 004°08'720.7
2018-Jun-06 17:00N 49°36' W 003°59'1020.7
2018-Jun-06 16:30N 49°41' W 003°45'1020.8
2018-Jun-06 16:00N 49°46' W 003°31'1020.9
2018-Jun-06 15:30N 49°51' W 003°17'1020.7
2018-Jun-06 15:00N 49°56' W 003°03'1020.7
2018-Jun-06 14:30N 50°01' W 002°48'1020.9
2018-Jun-06 14:00N 50°04' W 002°32'1020.6
2018-Jun-06 13:30N 50°06' W 002°17'1020.2
2018-Jun-06 13:00N 50°09' W 002°02'1019.9
2018-Jun-06 12:30N 50°12' W 001°47'1020.1
2018-Jun-06 12:01N 50°14' W 001°32'1020.0
2018-Jun-06 11:30N 50°17' W 001°17'1020.2
2018-Jun-06 11:00N 50°19' W 001°01'1020.1
2018-Jun-06 10:30N 50°22' W 000°46'1020.2
2018-Jun-06 10:00N 50°24' W 000°31'1020.4
2018-Jun-06 09:30N 50°27' W 000°15'1020.4
2018-Jun-06 09:01N 50°30' E 000°00'1020.6
2018-Jun-06 08:31N 50°33' E 000°16'1020.8
2018-Jun-06 08:00N 50°36' E 000°31'1020.8
2018-Jun-06 07:31N 50°41' E 000°46'1020.9
2018-Jun-06 07:00N 50°47' E 000°59'1020.8
2018-Jun-06 06:31N 50°53' E 001°13'1121.0
2018-Jun-06 06:00N 50°59' E 001°26'1020.4
2018-Jun-06 05:30N 51°07' E 001°37'1020.2
2018-Jun-06 05:00N 51°15' E 001°47'1020.6
2018-Jun-06 04:31N 51°23' E 001°57'  

Dump ship's entire track history